Latest Weather Observations for Pound Creek

IDV60801

Issued at 11:03 am EST Sunday 24 September 2017 (issued every 30 minutes, with the page automatically refreshed every 10 minutes)

About weather observations | Map of weather stations | Latest weather observations for VIC | Other Formats
Station Details ID: 085099 Name: POUND CREEK Lat: -38.63 Lon: 145.81 Height: 3.0 m
Data from the previous 72 hours. | See also: Recent months at Pound Creek
Date/Time
EST
Temp
°C
App
Temp
°C
Dew
Point
°C
Rel
Hum
%
Delta-T
°C
Wind Press
QNH
hPa
Press
MSL
hPa
Rain since
9am
mm
Dir  Spd
km/h
Gust
km/h
Spd
kts
Gust
kts
24/11:00am 15.5 9.4 6.5 55 4.4 WNW 28 46 15 25 997.5 997.5 0.0
24/10:53am 15.4 9.4 6.9 57 4.2 NW 28 46 15 25 997.6 997.6 0.0
24/10:30am 15.1 9.6 7.4 60 3.8 NW 26 41 14 22 997.8 997.8 0.0
24/10:17am 14.5 8.6 7.3 62 3.5 WNW 28 48 15 26 997.8 997.8 0.0
24/10:00am 14.3 9.8 8.7 69 2.8 NW 22 41 12 22 997.9 997.9 0.0
24/09:30am 11.9 8.3 8.2 78 1.8 WNW 17 32 9 17 997.9 997.9 0.0
24/09:00am 10.1 6.2 7.3 83 1.3 WNW 17 32 9 17 998.2 998.2 3.6
24/08:30am 8.4 3.8 5.5 82 1.3 WNW 19 39 10 21 998.3 998.3 3.4
24/08:16am 11.5 6.8 7.8 78 1.8 NW 22 61 12 33 998.4 998.4 1.6
24/08:00am 12.5 8.3 7.6 72 2.4 NNW 19 32 10 17 996.5 996.5 0.2
24/07:30am 12.8 8.6 7.3 69 2.7 NNW 19 30 10 16 996.2 996.2 0.0
24/07:00am 12.6 9.6 6.0 64 3.1 NNW 11 19 6 10 996.1 996.1 0.0
24/06:30am 11.6 9.3 5.7 67 2.7 NNW 7 13 4 7 996.5 996.5 0.0
24/06:00am 12.1 9.4 5.5 64 3.1 NNW 9 15 5 8 996.8 996.8 0.0
24/05:30am 11.9 9.2 5.8 66 2.8 NW 9 17 5 9 997.3 997.3 0.0
24/05:00am 12.4 8.6 5.8 64 3.1 NW 15 28 8 15 997.5 997.5 0.0
24/04:30am 12.7 8.7 6.5 66 3.0 NW 17 30 9 16 997.3 997.3 0.0
24/04:00am 12.9 9.0 6.9 67 2.9 NW 17 30 9 16 997.4 997.4 0.0
24/03:30am 12.8 9.7 7.3 69 2.7 NW 13 20 7 11 997.3 997.3 0.0
24/03:00am 12.9 10.3 7.6 70 2.6 NW 11 17 6 9 997.5 997.5 0.0
24/02:30am 13.1 10.6 8.0 71 2.5 NW 11 24 6 13 997.7 997.7 0.0
24/02:00am 13.4 10.9 8.0 70 2.7 WNW 11 19 6 10 997.5 997.5 0.0
24/01:30am 13.3 10.4 8.0 70 2.6 NW 13 22 7 12 997.4 997.4 0.0
24/01:00am 13.6 11.1 8.0 69 2.8 NW 11 20 6 11 997.7 997.7 0.0
24/12:30am 14.1 10.5 8.3 68 2.9 WNW 17 28 9 15 997.6 997.6 0.0
24/12:00am 14.2 10.3 8.6 69 2.8 WNW 19 32 10 17 997.5 997.5 0.0
 
Date/Time
EST
Temp
°C
App
Temp
°C
Dew
Point
°C
Rel
Hum
%
Delta-T
°C
Wind Press
QNH
hPa
Press
MSL
hPa
Rain since
9am
mm
Dir  Spd
km/h
Gust
km/h
Spd
kts
Gust
kts
23/11:30pm 14.3 10.8 8.9 70 2.7 WNW 17 28 9 15 997.6 997.6 0.0
23/11:00pm 14.5 11.1 9.3 71 2.7 WNW 17 28 9 15 997.7 997.7 0.0
23/10:30pm 14.1 11.5 9.3 73 2.4 NW 13 20 7 11 997.7 997.7 0.0
23/10:00pm 14.0 11.9 9.6 75 2.3 NW 11 19 6 10 997.8 997.8 0.0
23/09:30pm 13.6 11.8 9.3 75 2.2 NNW 9 15 5 8 997.8 997.8 0.0
23/09:00pm 13.7 12.3 9.4 75 2.2 NNW 7 11 4 6 997.8 997.8 0.0
23/08:30pm 14.1 12.6 9.3 73 2.4 NW 7 11 4 6 997.8 997.8 0.0
23/08:00pm 14.3 12.5 9.3 72 2.6 WNW 9 20 5 11 997.6 997.6 0.0
23/07:30pm 14.2 11.2 9.4 73 2.5 W 15 24 8 13 997.1 997.1 0.0
23/07:00pm 14.5 10.7 9.7 73 2.5 WSW 20 28 11 15 996.4 996.4 0.0
23/06:30pm 14.8 9.8 9.4 70 2.8 WSW 26 39 14 21 995.9 995.9 0.0
23/06:00pm 14.6 8.5 10.6 77 2.1 SW 33 52 18 28 994.7 994.7 0.0
23/05:50pm 15.1 6.6 10.5 74 2.4 WSW 46 67 25 36 994.1 994.1 0.0
23/05:46pm 15.7 8.3 11.1 74 2.5 WSW 41 67 22 36 993.9 993.9 0.0
23/05:30pm 15.4 9.3 10.4 72 2.6 WSW 33 54 18 29 992.9 992.9 0.0
23/05:21pm 15.9 10.7 10.4 70 2.9 WSW 28 54 15 29 992.3 992.3 0.0
23/05:00pm 17.2 12.3 10.1 63 3.8 WSW 26 37 14 20 990.4 990.4 0.0
23/04:58pm 17.6 13.2 10.5 63 3.8 WSW 24 37 13 20 990.4 990.4 0.0
23/04:30pm 22.6 23.8 13.7 57 5.2 CALM 0 2 0 1 988.8 988.8 0.0
23/04:00pm 22.4 22.8 14.8 62 4.5 SW 6 7 3 4 988.4 988.4 0.0
23/03:30pm 22.6 23.1 11.7 50 6.1 CALM 0 0 0 0 988.5 988.5 0.0
23/03:00pm 22.6 21.8 11.0 48 6.5 NE 6 7 3 4 988.6 988.6 0.0
23/02:30pm 23.2 22.5 11.3 47 6.6 ENE 6 7 3 4 989.3 989.3 0.0
23/02:00pm 22.1 20.1 8.6 42 7.2 ENE 9 17 5 9 989.5 989.5 0.0
23/01:30pm 22.0 19.8 9.5 45 6.7 E 11 20 6 11 990.1 990.1 0.0
23/01:00pm 21.4 19.8 8.0 42 7.0 ESE 6 11 3 6 991.5 991.5 0.0
23/12:30pm 20.7 18.6 9.9 50 5.8 S 11 13 6 7 992.3 992.3 0.0
23/12:00pm 19.8 17.0 8.5 48 5.9 SSW 13 19 7 10 993.4 993.4 0.0
23/11:30am 21.1 18.5 9.4 47 6.2 S 13 20 7 11 994.2 994.2 0.0
23/11:00am 22.1 21.6 7.9 40 7.5 CALM 0 4 0 2 994.6 994.6 0.0
23/10:30am 19.7 18.3 8.7 49 5.7 SSW 6 9 3 5 995.6 995.6 0.0
23/10:00am 19.1 16.5 9.3 53 5.2 SSW 13 19 7 10 996.6 996.6 0.0
23/09:30am 18.3 16.2 9.6 57 4.6 SSW 11 19 6 10 997.1 997.1 0.0
23/09:00am 19.7 16.2 7.1 44 6.4 SW 15 37 8 20 997.3 997.3 0.0
23/08:30am 18.8 14.9 7.3 47 5.8 N 17 24 9 13 997.1 997.1 0.0
23/08:00am 17.7 15.4 7.4 51 5.2 NNE 9 15 5 8 997.2 997.2 0.0
23/07:30am 16.6 14.6 7.3 54 4.6 NE 7 9 4 5 997.5 997.5 0.0
23/07:00am 15.8 13.7 6.8 55 4.4 NNE 7 11 4 6 997.7 997.7 0.0
23/06:30am 15.9 12.9 5.8 51 4.9 N 11 19 6 10 997.5 997.5 0.0
23/06:00am 15.8 12.7 5.4 50 5.0 N 11 15 6 8 997.2 997.2 0.0
23/05:30am 14.8 11.4 5.9 55 4.3 NNE 13 17 7 9 997.4 997.4 0.0
23/05:00am 15.6 11.8 5.8 52 4.7 NNE 15 19 8 10 997.8 997.8 0.0
23/04:30am 15.1 11.9 6.7 57 4.1 NNE 13 15 7 8 998.8 998.8 0.0
23/04:00am 14.5 12.2 7.3 62 3.6 NNE 9 11 5 6 999.3 999.3 0.0
23/03:30am 14.4 12.5 7.5 63 3.4 NNE 7 11 4 6 999.6 999.6 0.0
23/03:00am 14.5 12.4 8.2 66 3.2 NNE 9 13 5 7 1000.2 1000.2 0.0
23/02:30am 15.0 12.5 8.3 64 3.4 NNE 11 13 6 7 1000.6 1000.6 0.0
23/02:00am 14.6 12.9 8.5 67 3.1 N 7 9 4 5 1001.6 1001.6 0.0
23/01:30am 14.8 12.9 9.0 68 3.0 N 9 11 5 6 1002.1 1002.1 0.0
23/01:00am 14.4 12.5 9.2 71 2.7 N 9 11 5 6 1002.7 1002.7 0.0
23/12:30am 14.8 13.4 9.6 71 2.7 N 7 11 4 6 1003.1 1003.1 0.0
23/12:00am 15.3 12.9 9.9 70 2.8 NNE 13 19 7 10 1003.3 1003.3 0.0
 
Date/Time
EST
Temp
°C
App
Temp
°C
Dew
Point
°C
Rel
Hum
%
Delta-T
°C
Wind Press
QNH
hPa
Press
MSL
hPa
Rain since
9am
mm
Dir  Spd
km/h
Gust
km/h
Spd
kts
Gust
kts
22/11:30pm 15.4 12.6 10.0 70 2.8 NNE 15 20 8 11 1003.4 1003.4 0.0
22/11:00pm 15.6 12.8 9.9 69 3.0 NNE 15 26 8 14 1003.6 1003.6 0.0
22/10:30pm 15.1 12.8 10.3 73 2.5 NNE 13 17 7 9 1003.9 1003.9 0.0
22/10:00pm 15.3 13.5 10.7 74 2.4 NNE 11 15 6 8 1004.6 1004.6 0.0
22/09:30pm 15.4 14.1 11.2 76 2.2 NNE 9 15 5 8 1005.1 1005.1 0.0
22/09:00pm 15.7 14.9 11.1 74 2.5 NNE 6 11 3 6 1005.5 1005.5 0.0
22/08:30pm 16.4 14.7 11.3 72 2.7 NE 11 19 6 10 1005.5 1005.5 0.0
22/08:00pm 16.3 14.5 11.0 71 2.8 NNE 11 19 6 10 1005.6 1005.6 0.0
22/07:30pm 15.7 14.4 11.3 75 2.4 NE 9 13 5 7 1005.4 1005.4 0.0
22/07:00pm 15.5 14.3 11.7 78 2.1 NE 9 17 5 9 1005.4 1005.4 0.0
22/06:30pm 15.2 14.1 12.0 81 1.7 ENE 9 15 5 8 1005.3 1005.3 0.0
22/06:00pm 15.9 14.5 12.1 78 2.1 ENE 11 15 6 8 1005.3 1005.3 0.0
22/05:30pm 16.7 15.0 12.3 75 2.4 E 13 17 7 9 1005.4 1005.4 0.0
22/05:00pm 17.1 15.4 12.4 74 2.6 ESE 13 15 7 8 1005.6 1005.6 0.0
22/04:30pm 17.4 15.1 11.9 70 3.0 ESE 15 19 8 10 1005.7 1005.7 0.0
22/04:00pm 18.6 16.3 11.7 64 3.8 ESE 15 20 8 11 1005.8 1005.8 0.0
22/03:30pm 20.3 19.2 9.8 51 5.6 E 6 9 3 5 1005.9 1005.9 0.0
22/03:00pm 20.5 19.7 9.7 50 5.8 ENE 4 7 2 4 1006.1 1006.1 0.0
22/02:30pm 19.9 18.6 10.0 53 5.3 NE 7 13 4 7 1006.2 1006.2 0.0
22/02:00pm 19.7 18.5 9.6 52 5.4 N 6 9 3 5 1006.7 1006.7 0.0
22/01:30pm 19.5 18.4 10.0 54 5.1 NE 6 9 3 5 1007.0 1007.0 0.0
22/01:00pm 19.2 18.1 9.9 55 5.0 NE 6 9 3 5 1007.3 1007.3 0.0
22/12:30pm 18.4 16.7 9.7 57 4.6 NNE 9 17 5 9 1007.6 1007.6 0.0
22/12:00pm 18.1 17.2 11.2 64 3.8 E 7 11 4 6 1008.2 1008.2 0.0
22/11:30am 18.1 17.9 11.9 67 3.4 ENE 4 9 2 5 1008.9 1008.9 0.0
22/11:00am 16.6 15.6 11.1 70 3.0 E 7 15 4 8 1009.2 1009.2 0.0
22/10:30am 15.6 14.3 9.9 69 3.0 ENE 7 13 4 7 1009.7 1009.7 0.0
22/10:00am 14.7 13.7 10.9 78 2.0 ENE 7 9 4 5 1009.6 1009.6 0.0
22/09:30am 13.3 12.8 11.9 91 0.7 ENE 6 7 3 4 1010.0 1010.0 0.0
22/09:00am 12.3 11.5 11.0 92 0.7 NNE 6 9 3 5 1010.3 1010.3 0.0
22/08:30am 11.9 11.5 11.0 94 0.5 NNE 4 6 2 3 1010.3 1010.3 0.0
22/08:00am 11.0 10.7 10.2 95 0.4 ESE 2 4 1 2 1010.3 1010.3 0.0
22/07:30am 9.5 8.8 8.7 95 0.4 SSE 2 4 1 2 1010.3 1010.3 0.0
22/07:00am 7.2 5.3 6.5 95 0.3 S 6 7 3 4 1010.3 1010.3 0.0
22/06:30am 6.9 4.9 6.2 95 0.3 NNE 6 9 3 5 1010.3 1010.3 0.0
22/06:00am 6.5 5.1 5.5 93 0.4 NNE 2 6 1 3 1010.2 1010.2 0.0
22/05:30am 6.7 5.3 5.7 93 0.4 NNE 2 6 1 3 1010.1 1010.1 0.0
22/05:00am 6.8 5.4 5.6 92 0.5 NNE 2 6 1 3 1009.9 1009.9 0.0
22/04:30am 6.6 5.5 5.2 91 0.6 CALM 0 0 0 0 1010.0 1010.0 0.0
22/04:00am 6.6 5.1 5.2 91 0.6 NNE 2 4 1 2 1010.0 1010.0 0.0
22/03:30am 7.2 5.9 5.8 91 0.6 N 2 2 1 1 1010.1 1010.1 0.0
22/03:00am 7.9 6.3 6.5 91 0.6 N 4 6 2 3 1010.4 1010.4 0.0
22/02:30am 8.4 6.4 7.0 91 0.7 N 7 9 4 5 1010.6 1010.6 0.0
22/02:00am 8.9 7.2 7.5 91 0.7 N 6 7 3 4 1011.1 1011.1 0.0
22/01:30am 8.9 7.0 7.4 90 0.7 NNW 7 7 4 4 1011.5 1011.5 0.0
22/01:00am 9.7 8.2 8.3 91 0.7 NNW 6 7 3 4 1011.6 1011.6 0.0
22/12:30am 9.8 8.3 8.4 91 0.7 NW 6 7 3 4 1011.9 1011.9 0.0
22/12:00am 10.1 8.5 8.7 91 0.7 WNW 7 9 4 5 1011.8 1011.8 0.0
 
Date/Time
EST
Temp
°C
App
Temp
°C
Dew
Point
°C
Rel
Hum
%
Delta-T
°C
Wind Press
QNH
hPa
Press
MSL
hPa
Rain since
9am
mm
Dir  Spd
km/h
Gust
km/h
Spd
kts
Gust
kts
21/11:30pm 10.3 9.0 9.1 92 0.6 NW 6 7 3 4 1011.8 1011.8 0.0
21/11:00pm 10.6 9.2 9.0 90 0.8 NNW 6 7 3 4 1011.6 1011.6 0.0
21/10:30pm 10.9 9.6 9.3 90 0.8 NNW 6 9 3 5 1011.6 1011.6 0.0
21/10:00pm 10.9 10.0 9.2 89 0.8 N 4 6 2 3 1011.6 1011.6 0.0
21/09:30pm 10.9 10.0 9.2 89 0.8 NNW 4 6 2 3 1011.3 1011.3 0.0
21/09:00pm 10.9 9.9 8.8 87 1.0 NNW 4 6 2 3 1011.0 1011.0 0.0
21/08:30pm 11.8 10.9 9.4 85 1.2 NW 4 6 2 3 1010.6 1010.6 0.0
21/08:00pm 11.7 10.4 9.1 84 1.3 WSW 6 6 3 3 1010.3 1010.3 0.0
21/07:30pm 11.5 9.8 8.5 82 1.5 WSW 7 9 4 5 1010.0 1010.0 0.0
21/07:00pm 12.8 11.6 9.4 80 1.7 W 6 7 3 4 1009.8 1009.8 0.0
21/06:30pm 13.7 12.0 9.9 78 2.0 W 9 11 5 6 1009.3 1009.3 0.0
21/06:00pm 14.4 11.4 9.4 72 2.6 WSW 15 20 8 11 1009.0 1009.0 0.0
21/05:30pm 14.7 10.7 9.1 69 2.9 WSW 20 28 11 15 1008.3 1008.3 0.0
21/05:04pm 18.3 13.9 7.4 49 5.5 WNW 20 46 11 25 1007.9 1007.9 0.0
21/05:00pm 19.8 16.1 6.2 41 6.8 NW 15 26 8 14 1007.2 1007.2 0.0
21/04:30pm 21.1 16.5 5.5 36 7.7 NW 19 33 10 18 1006.7 1006.7 0.0
21/04:00pm 20.3 16.7 6.6 41 6.9 NW 15 24 8 13 1006.6 1006.6 0.0
21/03:30pm 20.7 16.0 5.9 38 7.4 NNW 20 33 11 18 1006.5 1006.5 0.0
21/03:00pm 20.5 14.9 5.3 37 7.5 NNW 24 39 13 21 1006.4 1006.4 0.0
21/02:30pm 20.2 14.2 5.1 37 7.4 NNW 26 43 14 23 1006.4 1006.4 0.0
21/02:09pm 20.3 13.6 3.9 34 7.8 NNW 28 48 15 26 1006.5 1006.5 0.0
21/02:00pm 20.3 14.6 4.8 36 7.6 NNW 24 41 13 22 1006.6 1006.6 0.0
21/01:33pm 20.1 13.5 4.2 35 7.6 NNW 28 48 15 26 1006.6 1006.6 0.0
21/01:30pm 20.1 13.6 4.6 36 7.5 NNW 28 43 15 23 1006.7 1006.7 0.0
21/01:03pm 19.6 12.0 4.1 36 7.4 NNW 33 57 18 31 1007.0 1007.0 0.0
21/01:00pm 19.6 11.9 3.3 34 7.7 NNW 33 50 18 27 1007.0 1007.0 0.0
21/12:40pm 19.5 11.0 3.2 34 7.6 NNW 37 57 20 31 1006.7 1006.7 0.0
21/12:30pm 19.6 11.2 3.7 35 7.5 NNW 37 56 20 30 1007.2 1007.2 0.0
21/12:00pm 19.3 11.7 3.1 34 7.6 NNW 32 54 17 29 1008.0 1008.0 0.0
21/11:36am 19.1 12.3 3.3 35 7.4 NNW 28 46 15 25 1008.6 1008.6 0.0
21/11:30am 19.4 13.7 5.1 39 7.0 NNW 24 43 13 23 1008.9 1008.9 0.0

Other Formats:

Comma delimited format used in spreadsheet applications
http://www.bom.gov.au/fwo/IDV60801/IDV60801.94886.axf

JavaScript Object Notation format (JSON) in row-major order
http://www.bom.gov.au/fwo/IDV60801/IDV60801.94886.json